Time;durP1;ratioP1;P1;durP2;ratioP2;P2;SDS_P1;SDS_P2;PMS_P1;PMS_P2;Temp;Humidity;BMP_temperature;BMP_pressure;BME280_temperature;BME280_humidity;BME280_pressure;Samples;Min_cycle;Max_cycle;Signal;HPM_P1;HPM_P2
2022/05/01 00:01:38;;;;;;;13.23;8.27;;;8.90;99.90;;;;;;5132850;27;20259;-58
2022/05/01 00:04:05;;;;;;;10.63;8.23;;;8.80;99.90;;;;;;5132908;27;20233;-57
2022/05/01 00:06:33;;;;;;;16.30;9.90;;;8.80;99.90;;;;;;5132233;27;20261;-53
2022/05/01 00:09:00;;;;;;;11.43;8.67;;;8.80;99.90;;;;;;5132596;27;20214;-57
2022/05/01 00:11:30;;;;;;;16.23;8.80;;;8.80;99.90;;;;;;5132391;27;20245;-55
2022/05/01 00:13:57;;;;;;;12.93;8.53;;;8.80;99.90;;;;;;5132371;27;20688;-58
2022/05/01 00:16:24;;;;;;;12.20;8.03;;;8.80;99.90;;;;;;5132944;27;20310;-59
2022/05/01 00:18:52;;;;;;;10.60;8.33;;;8.80;99.90;;;;;;5134586;27;20487;-59
2022/05/01 00:21:19;;;;;;;10.90;7.70;;;8.80;99.90;;;;;;5136481;27;20204;-59
2022/05/01 00:23:46;;;;;;;13.03;8.43;;;8.80;99.90;;;;;;5139585;27;20467;-59
2022/05/01 00:26:13;;;;;;;12.83;8.03;;;8.80;99.90;;;;;;5136384;27;20207;-59
2022/05/01 00:28:41;;;;;;;13.67;7.87;;;8.80;99.90;;;;;;5136076;27;20206;-59
2022/05/01 00:31:09;;;;;;;15.07;8.00;;;8.80;99.90;;;;;;5136439;27;20231;-59
2022/05/01 00:36:27;;;;;;;10.63;7.33;;;8.70;99.90;;;;;;5135762;27;20201;-59
2022/05/01 00:38:54;;;;;;;11.43;7.77;;;8.70;99.90;;;;;;5135964;27;20200;-59
2022/05/01 00:41:23;;;;;;;11.17;7.23;;;8.70;99.90;;;;;;5136135;27;20582;-59
2022/05/01 00:43:58;;;;;;;11.60;7.77;;;8.60;99.90;;;;;;5136157;27;20199;-59
2022/05/01 00:46:25;;;;;;;11.40;7.77;;;8.60;99.90;;;;;;5135646;27;20247;-59
2022/05/01 00:48:52;;;;;;;17.07;8.20;;;8.60;99.90;;;;;;5135833;27;20738;-58
2022/05/01 00:51:21;;;;;;;11.37;7.93;;;8.60;99.90;;;;;;5135537;27;20211;-59
2022/05/01 00:53:48;;;;;;;13.00;8.03;;;8.60;99.90;;;;;;5136303;27;20224;-58
2022/05/01 00:56:16;;;;;;;13.80;8.10;;;8.50;99.90;;;;;;5135536;27;20203;-59
2022/05/01 00:58:43;;;;;;;13.73;7.90;;;8.50;99.90;;;;;;5135830;27;20206;-59
2022/05/01 01:01:13;;;;;;;11.17;7.80;;;8.40;99.90;;;;;;5135736;27;20203;-59
2022/05/01 01:03:40;;;;;;;13.47;8.20;;;8.40;99.90;;;;;;5135503;27;20199;-59
2022/05/01 01:06:07;;;;;;;10.13;7.60;;;8.40;99.90;;;;;;5135153;27;20255;-58
2022/05/01 01:08:34;;;;;;;14.13;8.17;;;8.40;99.90;;;;;;5135460;27;20673;-57
2022/05/01 01:11:01;;;;;;;13.23;8.07;;;8.30;99.90;;;;;;5135242;27;20219;-58
2022/05/01 01:13:27;;;;;;;11.20;8.30;;;8.30;99.90;;;;;;5135439;27;20275;-59
2022/05/01 01:15:55;;;;;;;13.37;7.90;;;8.20;99.90;;;;;;5135235;27;20623;-57
2022/05/01 01:18:23;;;;;;;9.77;7.40;;;8.20;99.90;;;;;;5135430;27;20202;-57
2022/05/01 01:20:52;;;;;;;11.70;7.93;;;8.20;1.00;;;;;;5135017;27;20271;-58
2022/05/01 01:23:19;;;;;;;12.43;8.17;;;8.20;1.00;;;;;;5135511;27;20268;-59
2022/05/01 01:25:47;;;;;;;13.83;8.03;;;8.20;1.00;;;;;;5135496;27;20207;-59
2022/05/01 01:28:15;;;;;;;12.83;8.03;;;8.10;1.00;;;;;;5135050;27;20280;-59
2022/05/01 01:33:29;;;;;;;12.23;7.83;;;8.00;1.00;;;;;;5135216;27;20229;-59
2022/05/01 01:36:02;;;;;;;11.10;7.77;;;8.00;1.00;;;;;;5133965;27;20215;-57
2022/05/01 01:38:29;;;;;;;12.30;7.43;;;8.00;1.00;;;;;;5135323;27;20230;-59
2022/05/01 01:40:57;;;;;;;14.17;7.80;;;7.90;1.00;;;;;;5135210;27;20271;-59
2022/05/01 01:43:26;;;;;;;10.53;7.57;;;7.90;1.20;;;;;;5134938;27;20199;-58
2022/05/01 01:45:52;;;;;;;10.00;7.47;;;7.80;3.20;;;;;;5134974;27;20211;-58
2022/05/01 01:48:21;;;;;;;11.30;7.67;;;7.70;17.60;;;;;;5134949;27;20259;-59
2022/05/01 01:50:58;;;;;;;14.30;8.17;;;7.70;61.90;;;;;;5135020;27;20231;-59
2022/05/01 01:53:25;;;;;;;11.77;7.23;;;7.70;96.00;;;;;;5134685;27;20313;-59
2022/05/01 01:55:51;;;;;;;12.03;8.37;;;7.60;99.90;;;;;;5134712;27;20202;-59
2022/05/01 01:58:19;;;;;;;11.33;7.23;;;7.60;99.90;;;;;;5135016;27;20260;-59
2022/05/01 02:00:45;;;;;;;10.40;7.67;;;7.60;99.90;;;;;;5134903;27;20314;-59
2022/05/01 02:03:12;;;;;;;11.20;7.33;;;7.50;99.90;;;;;;5134489;27;20661;-59
2022/05/01 02:05:39;;;;;;;12.30;7.60;;;7.40;99.90;;;;;;5134591;27;20624;-59
2022/05/01 02:08:08;;;;;;;10.43;7.40;;;7.40;99.90;;;;;;5134291;27;20669;-56
2022/05/01 02:10:35;;;;;;;12.23;7.53;;;7.40;99.90;;;;;;5134120;27;20230;-59
2022/05/01 02:13:03;;;;;;;15.10;7.90;;;7.30;99.90;;;;;;5134402;27;20298;-59
2022/05/01 02:15:31;;;;;;;13.23;7.57;;;7.20;1.00;;;;;;5134381;27;20206;-59
2022/05/01 02:17:58;;;;;;;12.47;8.07;;;7.10;3.20;;;;;;5134245;27;20209;-59
2022/05/01 02:20:26;;;;;;;9.47;7.50;;;7.10;99.90;;;;;;5134064;27;20223;-58
2022/05/01 02:22:53;;;;;;;10.60;7.53;;;7.10;99.90;;;;;;5134293;27;20206;-59
2022/05/01 02:25:22;;;;;;;16.07;8.30;;;7.00;1.00;;;;;;5134077;27;20206;-59
2022/05/01 02:27:49;;;;;;;13.40;8.00;;;7.00;1.00;;;;;;5133983;27;20290;-59
2022/05/01 02:30:16;;;;;;;10.23;7.43;;;6.90;12.70;;;;;;5134253;27;20218;-58
2022/05/01 02:32:43;;;;;;;14.23;7.60;;;6.90;47.00;;;;;;5134112;27;20202;-57
2022/05/01 02:35:10;;;;;;;15.00;7.90;;;6.80;46.50;;;;;;5134040;27;20207;-59
2022/05/01 02:37:37;;;;;;;14.80;8.03;;;6.80;99.20;;;;;;5133447;27;20213;-59
2022/05/01 02:40:05;;;;;;;12.83;7.97;;;6.70;99.90;;;;;;5133965;27;20229;-59
2022/05/01 02:42:33;;;;;;;13.50;8.57;;;6.60;99.90;;;;;;5133850;27;20680;-57
2022/05/01 02:45:00;;;;;;;13.53;8.73;;;6.60;99.90;;;;;;5134064;27;20259;-59
2022/05/01 02:47:26;;;;;;;10.90;7.83;;;6.60;99.90;;;;;;5133576;27;20208;-58
2022/05/01 02:49:53;;;;;;;13.20;8.73;;;6.60;99.90;;;;;;5133623;27;20226;-59
2022/05/01 02:52:21;;;;;;;10.97;8.30;;;6.50;99.90;;;;;;5133653;27;20663;-59
2022/05/01 02:54:47;;;;;;;12.63;8.90;;;6.50;1.00;;;;;;5133688;27;20220;-52
2022/05/01 02:57:14;;;;;;;13.27;8.53;;;6.40;1.00;;;;;;5133426;27;20202;-55
2022/05/01 02:59:42;;;;;;;12.47;8.30;;;6.40;1.00;;;;;;5133366;27;20264;-56
2022/05/01 03:02:09;;;;;;;12.53;8.70;;;6.30;1.00;;;;;;5133699;27;20205;-56
2022/05/01 03:04:38;;;;;;;12.30;8.53;;;6.30;1.00;;;;;;5133335;27;20226;-58
2022/05/01 03:07:07;;;;;;;12.70;8.17;;;6.20;1.00;;;;;;5133759;27;20209;-56
2022/05/01 03:09:34;;;;;;;15.40;8.90;;;6.20;1.00;;;;;;5133748;27;20776;-58
2022/05/01 03:12:01;;;;;;;13.60;9.47;;;6.10;46.20;;;;;;5133462;27;20288;-57
2022/05/01 03:14:27;;;;;;;13.03;8.63;;;6.10;99.90;;;;;;5133184;27;20850;-59
2022/05/01 03:16:56;;;;;;;15.17;8.60;;;6.10;99.90;;;;;;5132837;27;20204;-59
2022/05/01 03:22:14;;;;;;;14.43;8.97;;;6.10;99.90;;;;;;5133315;27;20608;-57
2022/05/01 03:24:41;;;;;;;13.17;8.90;;;6.10;99.90;;;;;;5133545;27;20206;-59
2022/05/01 03:27:08;;;;;;;13.23;7.97;;;6.00;99.90;;;;;;5132806;27;20214;-59
2022/05/01 03:29:36;;;;;;;13.57;9.10;;;6.00;99.90;;;;;;5133174;27;20232;-59
2022/05/01 03:32:07;;;;;;;12.47;8.50;;;6.00;99.90;;;;;;5133468;27;20611;-58
2022/05/01 03:34:37;;;;;;;13.67;8.40;;;5.90;99.90;;;;;;5132666;27;20745;-59
2022/05/01 03:37:06;;;;;;;13.07;8.77;;;5.90;99.90;;;;;;5133021;27;20210;-59
2022/05/01 03:39:33;;;;;;;15.50;10.07;;;5.90;1.00;;;;;;5132994;27;20277;-59
2022/05/01 03:42:00;;;;;;;16.73;8.70;;;5.90;1.00;;;;;;5133227;27;20291;-59
2022/05/01 03:44:26;;;;;;;15.47;9.07;;;5.90;1.00;;;;;;5132891;27;20253;-58
2022/05/01 03:46:53;;;;;;;14.73;9.50;;;5.80;1.00;;;;;;5132769;27;20204;-57
2022/05/01 03:49:21;;;;;;;13.10;8.20;;;5.80;1.00;;;;;;5133051;27;20224;-59
2022/05/01 03:51:48;;;;;;;13.47;8.50;;;5.80;32.10;;;;;;5133223;27;20391;-59
2022/05/01 03:54:15;;;;;;;12.63;8.30;;;5.80;99.90;;;;;;5133013;27;20220;-57
2022/05/01 03:56:41;;;;;;;12.80;8.80;;;5.70;99.90;;;;;;5132381;27;20205;-58
2022/05/01 03:59:08;;;;;;;17.10;9.97;;;5.70;99.90;;;;;;5135412;27;20226;-57
2022/05/01 04:01:34;;;;;;;16.03;9.80;;;5.60;99.90;;;;;;5137029;27;20656;-59
2022/05/01 04:04:01;;;;;;;17.67;10.47;;;5.70;99.90;;;;;;5137221;27;20218;-59
2022/05/01 04:06:29;;;;;;;13.87;9.67;;;5.70;1.00;;;;;;5136617;27;20205;-57
2022/05/01 04:08:56;;;;;;;14.53;9.90;;;5.70;3.30;;;;;;5136742;27;20211;-57
2022/05/01 04:11:23;;;;;;;16.50;9.93;;;5.70;99.90;;;;;;5136542;27;20298;-58
2022/05/01 04:13:50;;;;;;;14.77;10.40;;;5.70;99.90;;;;;;5136849;27;20229;-57
2022/05/01 04:16:16;;;;;;;21.40;9.87;;;5.60;1.00;;;;;;5136709;27;20203;-59
2022/05/01 04:18:43;;;;;;;15.10;9.80;;;5.60;1.00;;;;;;5136652;27;20224;-58
2022/05/01 04:21:13;;;;;;;15.53;10.60;;;5.60;1.00;;;;;;5136854;27;20227;-59
2022/05/01 04:23:41;;;;;;;14.13;9.67;;;5.60;1.00;;;;;;5136371;27;20657;-54
2022/05/01 04:26:08;;;;;;;14.53;10.13;;;5.60;1.00;;;;;;5136367;27;20218;-55
2022/05/01 04:28:35;;;;;;;14.50;10.37;;;5.50;8.70;;;;;;5136735;27;20204;-58
2022/05/01 04:31:01;;;;;;;15.87;10.17;;;5.50;84.40;;;;;;5138320;27;20737;-58
2022/05/01 04:33:28;;;;;;;13.63;9.77;;;5.50;99.90;;;;;;5138174;27;20856;-59
2022/05/01 04:35:55;;;;;;;17.63;9.97;;;5.60;99.90;;;;;;5136961;27;20254;-57
2022/05/01 04:38:23;;;;;;;17.73;11.03;;;5.60;99.90;;;;;;5136410;27;20259;-58
2022/05/01 04:40:53;;;;;;;16.03;10.03;;;5.50;99.90;;;;;;5136514;27;20319;-57
2022/05/01 04:43:21;;;;;;;17.40;9.63;;;5.60;99.90;;;;;;5136477;27;20577;-57
2022/05/01 04:45:49;;;;;;;18.00;10.77;;;5.60;1.00;;;;;;5136007;27;20205;-58
2022/05/01 04:48:17;;;;;;;19.20;11.20;;;5.60;1.00;;;;;;5135984;27;20260;-59
2022/05/01 04:50:44;;;;;;;18.20;11.23;;;5.70;24.30;;;;;;5135958;27;20315;-58
2022/05/01 04:53:12;;;;;;;17.20;10.50;;;5.70;80.50;;;;;;5135906;27;20677;-57
2022/05/01 04:55:40;;;;;;;17.90;10.93;;;5.80;99.90;;;;;;5136075;27;20224;-58
2022/05/01 04:58:10;;;;;;;18.03;11.17;;;5.80;99.90;;;;;;5135735;27;20453;-59
2022/05/01 05:00:37;;;;;;;16.70;10.23;;;5.80;73.80;;;;;;5136021;27;20250;-59
2022/05/01 05:03:04;;;;;;;19.13;11.67;;;5.90;1.00;;;;;;5135977;27;20619;-58
2022/05/01 05:05:32;;;;;;;18.77;10.77;;;5.90;1.00;;;;;;5135736;27;20811;-58
2022/05/01 05:09:53;;;;;;;16.93;11.30;;;5.90;31.20;;;;;;5135361;27;20693;-59
2022/05/01 05:10:46;;;;;;;17.97;11.13;;;6.00;1.00;;;;;;5134281;27;20225;-59
2022/05/01 05:13:14;;;;;;;19.30;11.87;;;6.10;1.00;;;;;;5135718;27;20213;-59
2022/05/01 05:15:41;;;;;;;21.90;11.73;;;6.20;85.70;;;;;;5135490;27;20226;-59
2022/05/01 05:18:08;;;;;;;18.40;12.40;;;6.20;99.90;;;;;;5135459;27;20222;-59
2022/05/01 05:20:35;;;;;;;20.33;12.20;;;6.30;99.90;;;;;;5135365;27;20709;-59
2022/05/01 05:23:02;;;;;;;17.77;11.10;;;6.30;72.10;;;;;;5135820;27;20272;-59
2022/05/01 05:25:29;;;;;;;15.40;11.17;;;6.40;1.00;;;;;;5135416;27;20204;-57
2022/05/01 05:27:56;;;;;;;16.90;11.13;;;6.40;1.00;;;;;;5135288;27;20210;-57
2022/05/01 05:30:24;;;;;;;17.70;11.13;;;6.50;99.90;;;;;;5135233;27;20237;-59
2022/05/01 05:32:51;;;;;;;17.40;11.00;;;6.50;1.00;;;;;;5135301;27;20217;-59
2022/05/01 05:35:17;;;;;;;18.50;11.70;;;6.50;99.90;;;;;;5135371;27;20273;-58
2022/05/01 05:37:44;;;;;;;17.70;11.30;;;6.50;1.00;;;;;;5134822;27;20212;-59
2022/05/01 05:40:12;;;;;;;17.50;11.17;;;6.40;1.00;;;;;;5135299;27;20231;-59
2022/05/01 05:42:39;;;;;;;16.40;10.93;;;6.40;99.90;;;;;;5135018;27;20215;-59
2022/05/01 05:45:06;;;;;;;17.43;11.77;;;6.40;1.00;;;;;;5134967;27;20255;-58
2022/05/01 05:47:34;;;;;;;17.63;11.83;;;6.40;99.90;;;;;;5134737;27;20290;-58
2022/05/01 05:50:01;;;;;;;18.87;11.17;;;6.40;99.90;;;;;;5135167;27;20259;-59
2022/05/01 05:52:28;;;;;;;17.60;10.87;;;6.50;1.00;;;;;;5134964;27;20230;-59
2022/05/01 05:54:54;;;;;;;19.47;12.37;;;6.50;1.00;;;;;;5134991;27;20270;-59
2022/05/01 05:57:21;;;;;;;18.97;12.37;;;6.50;99.90;;;;;;5134523;27;20614;-58
2022/05/01 05:59:47;;;;;;;18.33;12.03;;;6.60;4.00;;;;;;5134404;27;20294;-58
2022/05/01 06:02:14;;;;;;;18.23;12.40;;;6.60;1.00;;;;;;5135156;27;20612;-57
2022/05/01 06:04:42;;;;;;;18.27;11.77;;;6.70;1.00;;;;;;5134544;27;20203;-59
2022/05/01 06:07:09;;;;;;;15.93;11.23;;;6.80;1.00;;;;;;5134393;27;20207;-58
2022/05/01 06:09:36;;;;;;;18.90;13.03;;;6.90;1.00;;;;;;5134445;27;20222;-59
2022/05/01 06:12:03;;;;;;;18.40;12.20;;;7.10;40.10;;;;;;5134536;27;20210;-59
2022/05/01 06:14:30;;;;;;;17.53;11.70;;;7.20;1.00;;;;;;5134189;27;20238;-59
2022/05/01 06:16:56;;;;;;;17.43;11.80;;;7.20;99.90;;;;;;5134261;27;20260;-57
2022/05/01 06:19:23;;;;;;;21.50;14.80;;;7.20;1.00;;;;;;5134273;27;20634;-57
2022/05/01 06:21:51;;;;;;;24.47;13.60;;;7.20;1.00;;;;;;5134020;27;20485;-58
2022/05/01 06:24:18;;;;;;;19.63;12.50;;;7.20;99.90;;;;;;5134430;27;20209;-59
2022/05/01 06:26:44;;;;;;;19.57;11.67;;;7.30;96.70;;;;;;5133248;27;20202;-59
2022/05/01 06:29:11;;;;;;;15.30;10.00;;;7.50;93.30;;;;;;5134181;27;20235;-58
2022/05/01 06:31:40;;;;;;;15.17;9.90;;;7.50;1.00;;;;;;5134213;27;20213;-59
2022/05/01 06:34:09;;;;;;;14.57;9.40;;;7.50;99.90;;;;;;5134084;27;20354;-59
2022/05/01 06:36:36;;;;;;;14.47;10.00;;;7.60;99.90;;;;;;5133957;27;20206;-59
2022/05/01 06:39:04;;;;;;;15.80;9.53;;;7.70;99.90;;;;;;5133962;27;20640;-59
2022/05/01 06:41:31;;;;;;;12.57;9.27;;;7.80;99.90;;;;;;5133830;27;20255;-59
2022/05/01 06:43:58;;;;;;;15.07;10.00;;;8.00;99.90;;;;;;5133923;27;20207;-59
2022/05/01 06:46:24;;;;;;;16.93;11.30;;;8.10;60.00;;;;;;5133703;27;20206;-60
2022/05/01 06:48:51;;;;;;;13.57;10.00;;;8.30;1.00;;;;;;5133617;27;20202;-58
2022/05/01 06:51:17;;;;;;;14.53;9.67;;;8.40;99.90;;;;;;5133914;27;20202;-59
2022/05/01 06:53:44;;;;;;;12.67;8.60;;;8.30;99.90;;;;;;5133757;27;20255;-57
2022/05/01 06:56:12;;;;;;;13.07;8.63;;;8.40;99.90;;;;;;5133176;27;20641;-58
2022/05/01 06:58:39;;;;;;;12.80;8.50;;;8.60;99.90;;;;;;5134956;27;20236;-59
2022/05/01 07:01:07;;;;;;;11.67;8.30;;;8.70;99.90;;;;;;5133784;27;20705;-60
2022/05/01 07:03:34;;;;;;;11.57;9.03;;;8.80;31.10;;;;;;5134011;27;20297;-58
2022/05/01 07:06:02;;;;;;;13.40;9.23;;;8.90;1.00;;;;;;5133057;27;20207;-54
2022/05/01 07:08:29;;;;;;;12.37;9.20;;;9.00;1.00;;;;;;5133427;27;20208;-58
2022/05/01 07:10:55;;;;;;;13.43;8.77;;;9.20;1.00;;;;;;5132957;27;20712;-57
2022/05/01 07:13:23;;;;;;;15.40;9.40;;;9.50;1.00;;;;;;5133599;27;20203;-53
2022/05/01 07:15:50;;;;;;;12.60;9.77;;;9.50;1.00;;;;;;5133346;27;20272;-57
2022/05/01 07:18:17;;;;;;;13.70;9.40;;;9.40;99.90;;;;;;5133060;27;20313;-57
2022/05/01 07:20:45;;;;;;;15.13;9.53;;;9.50;1.00;;;;;;5133165;27;20287;-60
2022/05/01 07:23:12;;;;;;;13.57;8.13;;;9.80;99.90;;;;;;5132904;27;20199;-60
2022/05/01 07:25:39;;;;;;;13.00;8.57;;;10.00;99.90;;;;;;5133494;27;20223;-59
2022/05/01 07:28:06;;;;;;;12.00;7.83;;;10.00;99.90;;;;;;5132768;27;20210;-60
2022/05/01 07:30:34;;;;;;;10.73;7.97;;;9.90;99.90;;;;;;5133240;27;20352;-56
2022/05/01 07:33:01;;;;;;;10.53;7.57;;;10.10;99.90;;;;;;5132469;27;20349;-58
2022/05/01 07:35:27;;;;;;;11.97;8.33;;;10.00;99.90;;;;;;5132611;27;20235;-61
2022/05/01 07:37:54;;;;;;;10.97;7.23;;;10.00;99.90;;;;;;5132452;27;20673;-57
2022/05/01 07:40:24;;;;;;;12.43;8.13;;;9.90;99.90;;;;;;5132352;27;20252;-60
2022/05/01 07:42:50;;;;;;;12.43;7.67;;;10.10;99.90;;;;;;5132957;27;20201;-60
2022/05/01 07:45:17;;;;;;;12.60;8.43;;;10.20;99.90;;;;;;5132844;27;20211;-60
2022/05/01 07:47:45;;;;;;;13.07;7.07;;;10.30;99.90;;;;;;5132461;27;20692;-60
2022/05/01 07:50:12;;;;;;;10.63;7.27;;;10.40;99.90;;;;;;5132367;27;20225;-58
2022/05/01 07:52:39;;;;;;;11.10;7.67;;;10.40;99.90;;;;;;5133011;27;20212;-60
2022/05/01 07:55:07;;;;;;;13.93;7.90;;;10.50;99.90;;;;;;5132696;27;20862;-60
2022/05/01 07:57:34;;;;;;;10.27;7.73;;;10.80;99.90;;;;;;5132260;27;20263;-61
2022/05/01 08:00:01;;;;;;;9.50;7.60;;;11.10;99.90;;;;;;5132746;27;20343;-60
2022/05/01 08:04:27;;;;;;;10.50;7.83;;;11.30;99.90;;;;;;5132675;27;20214;-60
2022/05/01 08:05:23;;;;;;;10.57;8.60;;;11.30;99.90;;;;;;5132559;28;20203;-58
2022/05/01 08:07:51;;;;;;;9.00;7.57;;;11.40;99.90;;;;;;5132438;27;20230;-60
2022/05/01 08:10:17;;;;;;;11.03;8.40;;;11.60;99.90;;;;;;5132400;27;20766;-60
2022/05/01 08:12:44;;;;;;;12.20;8.47;;;11.80;99.90;;;;;;5132329;27;20210;-61
2022/05/01 08:15:11;;;;;;;10.90;8.77;;;11.90;99.90;;;;;;5132459;27;20230;-61
2022/05/01 08:17:37;;;;;;;13.40;8.13;;;12.00;99.90;;;;;;5132548;27;20271;-61
2022/05/01 08:22:51;;;;;;;10.67;7.83;;;11.90;99.90;;;;;;5132658;28;20201;-59
2022/05/01 08:25:18;;;;;;;10.03;7.07;;;11.90;99.90;;;;;;5132451;27;20203;-60
2022/05/01 08:27:44;;;;;;;10.67;8.20;;;11.70;99.90;;;;;;5132081;27;20673;-61
2022/05/01 08:30:12;;;;;;;10.57;8.20;;;11.70;99.90;;;;;;5132446;27;20741;-59
2022/05/01 08:32:39;;;;;;;11.37;8.30;;;11.80;99.90;;;;;;5132683;27;20260;-60
2022/05/01 08:35:06;;;;;;;10.27;7.77;;;12.00;99.90;;;;;;5108873;27;20223;-61
2022/05/01 08:37:33;;;;;;;14.83;8.53;;;12.20;99.90;;;;;;5110623;28;20571;-61
2022/05/01 08:40:01;;;;;;;9.73;8.17;;;12.50;99.90;;;;;;5111335;28;20731;-62
2022/05/01 08:42:29;;;;;;;11.37;7.67;;;12.80;99.90;;;;;;5111457;28;20207;-62
2022/05/01 08:44:56;;;;;;;8.83;7.40;;;13.00;99.90;;;;;;5112759;28;20249;-61
2022/05/01 08:47:28;;;;;;;8.60;7.40;;;13.20;99.90;;;;;;5115432;28;20209;-62
2022/05/01 08:49:59;;;;;;;11.13;7.33;;;13.40;99.90;;;;;;5116050;28;20226;-61
2022/05/01 08:52:29;;;;;;;11.30;7.30;;;13.30;99.90;;;;;;5115902;27;20203;-62
2022/05/01 08:54:58;;;;;;;10.67;7.90;;;13.00;99.90;;;;;;5115511;28;20766;-60
2022/05/01 08:57:28;;;;;;;11.37;8.20;;;13.00;99.90;;;;;;5114819;28;20250;-63
2022/05/01 08:59:55;;;;;;;12.00;7.47;;;12.80;99.90;;;;;;5114813;28;20714;-62
2022/05/01 09:02:22;;;;;;;12.90;7.30;;;12.90;99.90;;;;;;5115000;28;20209;-62
2022/05/01 09:04:50;;;;;;;10.40;7.87;;;13.00;99.90;;;;;;5113939;28;20261;-61
2022/05/01 09:07:16;;;;;;;10.53;7.50;;;13.00;99.90;;;;;;5114467;27;20677;-59
2022/05/01 09:09:43;;;;;;;14.53;8.87;;;12.90;99.90;;;;;;5114402;28;20585;-62
2022/05/01 09:14:57;;;;;;;10.33;7.87;;;12.90;99.90;;;;;;5115020;28;20194;-62
2022/05/01 09:17:24;;;;;;;11.57;7.70;;;13.00;99.90;;;;;;5114690;27;20203;-61
2022/05/01 09:19:53;;;;;;;12.30;8.17;;;13.20;99.90;;;;;;5114337;28;20230;-61
2022/05/01 09:22:22;;;;;;;8.93;7.23;;;13.10;99.90;;;;;;5114710;28;20207;-61
2022/05/01 09:24:53;;;;;;;10.50;7.27;;;13.20;99.90;;;;;;5114337;28;20212;-61
2022/05/01 09:27:27;;;;;;;8.80;6.83;;;13.20;99.90;;;;;;5113969;28;20576;-61
2022/05/01 09:30:09;;;;;;;11.63;6.53;;;13.20;99.90;;;;;;5114297;28;20258;-61
2022/05/01 09:32:37;;;;;;;8.00;6.23;;;13.60;99.90;;;;;;5114278;28;20656;-61
2022/05/01 09:35:05;;;;;;;9.37;7.50;;;13.70;99.90;;;;;;5113395;28;20298;-63
2022/05/01 09:37:31;;;;;;;9.17;7.00;;;13.60;99.90;;;;;;5114030;28;20202;-61
2022/05/01 09:39:58;;;;;;;12.53;8.50;;;13.70;99.90;;;;;;5114665;28;20277;-61
2022/05/01 09:42:25;;;;;;;9.13;6.70;;;13.80;99.90;;;;;;5114730;27;20203;-61
2022/05/01 09:45:07;;;;;;;9.57;7.00;;;13.90;99.90;;;;;;5114226;28;20210;-63
2022/05/01 09:47:39;;;;;;;11.67;7.43;;;13.90;99.90;;;;;;5114378;28;20232;-63
2022/05/01 09:50:07;;;;;;;10.73;6.77;;;13.90;99.90;;;;;;5114419;28;20297;-63
2022/05/01 09:53:04;;;;;;;8.03;6.13;;;13.70;99.90;;;;;;5114771;28;20204;-63
2022/05/01 09:55:31;;;;;;;9.20;6.90;;;13.70;99.90;;;;;;5050677;28;20225;-63
2022/05/01 09:58:06;;;;;;;10.77;7.57;;;13.80;99.90;;;;;;5098818;28;20575;-63
2022/05/01 10:00:41;;;;;;;12.00;7.47;;;13.80;99.90;;;;;;5113969;28;20251;-63
2022/05/01 10:03:23;;;;;;;10.30;7.37;;;13.70;99.90;;;;;;5113986;28;20208;-63
2022/05/01 10:05:50;;;;;;;10.20;7.17;;;13.70;99.90;;;;;;5113751;28;20283;-63
2022/05/01 10:08:18;;;;;;;10.13;6.60;;;13.70;99.90;;;;;;5113832;28;20206;-63
2022/05/01 10:10:46;;;;;;;8.07;5.97;;;13.60;99.80;;;;;;5113601;28;20713;-63
2022/05/01 10:13:14;;;;;;;7.83;5.77;;;13.60;99.40;;;;;;5113855;28;20221;-63
2022/05/01 10:15:41;;;;;;;11.90;6.37;;;13.60;98.00;;;;;;5113892;27;20237;-63
2022/05/01 10:18:09;;;;;;;8.90;6.63;;;13.90;99.90;;;;;;5113075;28;20267;-63
2022/05/01 10:20:38;;;;;;;10.33;6.60;;;13.80;99.90;;;;;;5114057;28;20286;-63
2022/05/01 10:23:05;;;;;;;9.17;7.00;;;13.90;99.90;;;;;;5113575;28;20222;-63
2022/05/01 10:25:37;;;;;;;9.90;6.93;;;13.90;99.90;;;;;;5113754;28;20839;-63
2022/05/01 10:28:13;;;;;;;10.17;7.00;;;14.10;99.90;;;;;;5113004;28;20206;-63
2022/05/01 10:33:46;;;;;;;10.77;7.57;;;13.90;99.90;;;;;;5113290;28;20206;-63
2022/05/01 10:36:27;;;;;;;10.70;7.20;;;14.20;99.90;;;;;;5113327;28;20632;-63
2022/05/01 10:39:04;;;;;;;9.37;6.37;;;14.50;99.90;;;;;;5112975;28;20651;-63
2022/05/01 10:41:33;;;;;;;8.17;6.60;;;14.40;99.30;;;;;;5113559;28;20210;-63
2022/05/01 10:44:01;;;;;;;11.10;6.90;;;14.10;96.00;;;;;;5113326;28;20230;-63
2022/05/01 10:46:29;;;;;;;8.27;7.00;;;14.20;97.90;;;;;;5112813;28;20206;-63
2022/05/01 10:48:59;;;;;;;10.60;7.97;;;14.50;99.90;;;;;;5113069;28;20256;-63
2022/05/01 10:51:52;;;;;;;9.70;8.03;;;14.40;99.00;;;;;;5113102;28;20203;-63
2022/05/01 10:54:36;;;;;;;10.83;8.50;;;14.70;99.40;;;;;;5113881;28;20204;-63
2022/05/01 10:57:10;;;;;;;9.70;7.67;;;14.70;99.90;;;;;;5112804;28;20259;-63
2022/05/01 10:59:39;;;;;;;8.43;7.37;;;14.50;98.80;;;;;;5112921;28;20229;-62
2022/05/01 11:02:07;;;;;;;10.77;7.40;;;14.70;99.60;;;;;;5113175;28;20246;-63
2022/05/01 11:04:40;;;;;;;10.03;7.70;;;14.90;99.90;;;;;;5112945;28;20260;-63
2022/05/01 11:07:11;;;;;;;9.80;7.47;;;15.00;99.90;;;;;;5111897;28;20210;-63
2022/05/01 11:09:40;;;;;;;11.17;8.07;;;15.30;99.90;;;;;;5112346;28;20223;-63
2022/05/01 11:12:08;;;;;;;11.33;7.67;;;14.90;99.90;;;;;;5112430;28;20215;-63
2022/05/01 11:14:35;;;;;;;9.60;7.17;;;15.10;99.90;;;;;;5113117;28;20268;-63
2022/05/01 11:17:03;;;;;;;10.63;7.77;;;15.30;99.90;;;;;;5112477;28;20234;-63
2022/05/01 11:19:31;;;;;;;10.17;8.17;;;15.10;99.90;;;;;;5112763;28;20655;-63
2022/05/01 11:21:58;;;;;;;9.93;8.03;;;15.10;99.90;;;;;;5112407;28;20214;-63
2022/05/01 11:24:44;;;;;;;11.37;8.57;;;15.20;99.90;;;;;;5112647;28;20204;-63
2022/05/01 11:27:16;;;;;;;9.87;8.23;;;15.30;99.90;;;;;;5112370;28;20916;-63
2022/05/01 11:30:33;;;;;;;10.67;8.00;;;15.40;99.90;;;;;;5112601;28;20219;-63
2022/05/01 11:33:02;;;;;;;11.63;8.13;;;15.20;99.60;;;;;;5112297;28;20203;-63
2022/05/01 11:35:53;;;;;;;11.50;7.73;;;15.20;99.90;;;;;;5112637;28;20241;-63
2022/05/01 11:38:22;;;;;;;10.77;8.30;;;15.20;97.40;;;;;;5112425;28;20672;-63
2022/05/01 11:40:59;;;;;;;8.93;7.63;;;14.80;96.50;;;;;;5112426;28;20753;-63
2022/05/01 11:43:28;;;;;;;9.90;8.73;;;15.10;98.20;;;;;;5112342;28;20253;-63
2022/05/01 11:45:56;;;;;;;11.13;8.53;;;15.40;97.30;;;;;;5112177;28;20195;-63
2022/05/01 11:48:23;;;;;;;9.63;7.63;;;15.40;96.90;;;;;;5112644;28;20203;-63
2022/05/01 11:50:51;;;;;;;9.97;7.57;;;15.50;98.20;;;;;;5112259;28;20302;-63
2022/05/01 11:53:23;;;;;;;9.70;6.97;;;15.60;98.70;;;;;;5112465;28;20199;-63
2022/05/01 12:04:25;;;;;;;10.50;7.70;;;15.50;95.50;;;;;;5112383;28;20207;-63
2022/05/01 12:07:01;;;;;;;8.93;7.60;;;15.60;95.70;;;;;;5111772;28;20696;-63
2022/05/01 12:09:29;;;;;;;8.80;7.37;;;15.70;96.30;;;;;;5108950;28;20226;-64
2022/05/01 12:11:56;;;;;;;9.40;7.80;;;15.90;99.50;;;;;;5107014;28;20637;-64
2022/05/01 12:14:24;;;;;;;9.73;7.97;;;15.80;96.00;;;;;;5112008;28;20267;-65
2022/05/01 12:16:54;;;;;;;10.47;8.07;;;15.40;94.20;;;;;;5111285;28;20280;-65
2022/05/01 12:19:33;;;;;;;9.50;7.97;;;15.40;94.20;;;;;;5113046;28;20227;-65
2022/05/01 12:22:00;;;;;;;11.07;8.77;;;15.50;97.50;;;;;;5123847;27;20199;-67
2022/05/01 12:24:27;;;;;;;10.43;8.80;;;15.70;98.40;;;;;;5132995;27;20666;-60
2022/05/01 12:26:54;;;;;;;9.33;7.57;;;16.20;99.90;;;;;;5136028;27;20255;-60
2022/05/01 12:29:22;;;;;;;9.90;7.47;;;16.70;99.90;;;;;;5135963;27;20230;-61
2022/05/01 12:32:12;;;;;;;10.53;8.67;;;17.10;99.90;;;;;;5136685;27;20279;-60
2022/05/01 12:34:43;;;;;;;11.00;7.93;;;16.60;99.90;;;;;;5131222;27;20204;-62
2022/05/01 12:37:14;;;;;;;9.37;8.40;;;16.00;97.70;;;;;;5135769;27;20211;-62
2022/05/01 12:39:42;;;;;;;10.20;8.30;;;15.30;91.00;;;;;;5135645;27;20234;-62
2022/05/01 12:45:20;;;;;;;11.37;8.33;;;15.20;92.40;;;;;;5135378;27;20581;-61
2022/05/01 12:47:50;;;;;;;11.80;8.47;;;15.40;94.50;;;;;;5135487;27;20210;-61
2022/05/01 12:50:28;;;;;;;11.37;8.23;;;15.20;90.50;;;;;;5135540;27;20222;-61
2022/05/01 12:52:58;;;;;;;12.57;8.13;;;15.00;90.00;;;;;;5135120;27;20733;-60
2022/05/01 12:55:30;;;;;;;11.23;9.37;;;14.80;89.10;;;;;;5135634;27;20619;-60
2022/05/01 12:57:59;;;;;;;11.77;9.30;;;14.90;90.00;;;;;;5135377;27;20791;-60
2022/05/01 13:00:30;;;;;;;11.40;9.43;;;14.70;85.60;;;;;;5135417;27;20226;-59
2022/05/01 13:03:13;;;;;;;10.80;8.37;;;14.70;85.50;;;;;;5135415;27;20617;-59
2022/05/01 13:05:41;;;;;;;10.87;8.50;;;15.00;96.10;;;;;;5135881;27;20289;-60
2022/05/01 13:08:17;;;;;;;10.67;8.70;;;15.20;93.00;;;;;;5135316;27;20222;-59
2022/05/01 13:10:43;;;;;;;9.37;8.13;;;15.40;94.20;;;;;;5134898;27;20267;-61
2022/05/01 13:13:10;;;;;;;9.97;8.07;;;15.70;94.60;;;;;;5135657;27;20211;-61
2022/05/01 13:15:38;;;;;;;9.77;8.53;;;16.00;96.90;;;;;;5136614;27;20203;-62
2022/05/01 13:18:07;;;;;;;10.03;8.77;;;16.00;96.90;;;;;;5135749;27;20254;-62
2022/05/01 13:20:34;;;;;;;11.53;8.50;;;16.10;95.90;;;;;;5135793;27;20226;-62
2022/05/01 13:23:00;;;;;;;13.10;8.90;;;16.30;96.60;;;;;;5135256;27;20558;-63